Date,TemperatureHighF,TemperatureAvgF,TemperatureLowF,DewpointHighF,DewpointAvgF,DewpointLowF,HumidityHigh,HumidityAvg,HumidityLow,PressureMaxIn,PressureMinIn,WindSpeedMaxMPH,WindSpeedAvgMPH,GustSpeedMaxMPH,PrecipitationSumIn
2013-1-1,31.3,18.2,10.8,22.0,12.7,5.8,86,79,62,30.37,30.25,7,1,7,0.06
2013-1-2,17.1,10.8,5.2,11.8,6.2,0.5,85,81,78,30.33,30.22,6,0,6,0.00
2013-1-3,32.0,18.6,4.0,20.9,11.1,-0.7,84,73,59,30.22,30.11,13,2,13,0.00
2013-1-4,41.2,30.0,22.3,29.8,21.5,15.6,77,71,61,30.25,30.15,12,2,12,0.00
2013-1-5,29.7,26.2,22.7,23.6,19.5,15.5,82,76,70,30.15,30.07,7,1,7,0.00
2013-1-6,40.3,31.4,24.8,30.4,24.6,19.3,83,76,66,30.12,30.01,14,2,14,0.00
2013-1-7,44.8,37.7,31.5,36.0,30.8,25.8,87,76,66,30.10,29.95,20,6,20,0.01
2013-1-8,45.2,39.3,35.8,36.8,33.1,29.3,86,78,71,30.12,29.96,21,8,21,0.01
2013-1-9,42.5,35.3,25.4,33.0,27.3,19.2,81,73,64,29.96,29.74,32,6,32,0.02
2013-1-10,32.0,25.0,20.2,23.2,17.3,13.6,79,72,53,29.91,29.82,9,1,9,0.00
2013-1-11,27.7,20.6,14.0,16.0,12.4,7.2,80,71,55,30.10,29.90,7,0,7,0.00
2013-1-12,26.6,15.3,6.8,14.4,7.0,1.0,78,70,51,30.17,30.07,6,1,6,0.00
2013-1-13,27.5,15.5,4.7,12.6,4.8,-2.0,75,63,45,30.24,30.14,5,0,5,0.00
2013-1-14,38.5,23.0,10.8,22.1,11.7,1.9,71,62,46,30.31,30.22,11,2,11,0.00
2013-1-15,47.9,32.8,22.5,27.8,19.9,14.5,74,60,44,30.47,30.31,9,2,9,0.00
2013-1-16,50.2,36.6,25.6,25.5,20.0,15.7,68,52,37,30.48,30.38,8,2,8,0.00
2013-1-17,50.0,35.5,26.6,25.9,19.9,16.0,65,54,38,30.39,30.28,9,2,9,0.00
2013-1-18,51.5,35.5,25.9,27.0,19.8,15.3,66,53,36,30.29,30.23,8,2,8,0.00
2013-1-19,51.8,35.9,26.1,25.4,19.0,14.8,63,51,33,30.31,30.24,9,2,9,0.00
2013-1-20,45.7,32.6,22.1,23.0,16.7,12.1,66,52,37,30.33,30.23,8,1,8,0.00
2013-1-21,50.8,33.9,22.7,21.2,15.4,10.7,61,48,29,30.23,30.12,10,2,10,0.00
2013-1-22,47.9,34.0,25.2,23.4,17.2,11.5,61,50,35,30.12,29.97,8,2,8,0.00
2013-1-23,48.2,39.7,34.7,33.8,25.3,16.9,79,58,37,30.05,29.83,23,4,23,0.00
2013-1-24,49.0,40.6,33.1,37.0,32.4,28.0,86,73,58,30.11,30.05,17,4,17,0.01
2013-1-25,43.7,40.5,36.4,37.9,35.4,32.5,87,82,74,30.09,29.89,16,5,16,0.00
2013-1-26,40.7,32.9,27.7,32.5,23.5,18.9,86,69,49,29.95,29.86,16,3,16,0.00
2013-1-27,37.8,29.8,25.0,23.9,21.4,18.2,79,71,50,30.01,29.93,10,2,10,0.00
2013-1-28,36.4,32.4,29.0,26.5,24.3,22.5,80,72,63,30.03,29.92,14,2,14,0.00
2013-1-29,45.9,37.8,34.4,32.7,28.2,25.6,75,68,58,30.29,30.00,10,2,10,0.00
2013-1-30,47.7,38.8,33.8,35.9,30.3,25.8,80,72,62,30.33,30.28,10,2,10,0.00
2013-1-31,46.1,36.2,27.9,33.9,28.7,23.6,85,75,58,30.29,30.21,9,1,9,0.00
2013-2-1,47.9,35.7,25.9,35.0,27.4,21.6,85,73,50,30.30,30.21,6,1,8,0.00
2013-2-2,47.5,35.4,26.3,33.1,27.6,21.8,86,74,55,30.31,30.19,8,1,8,0.00
2013-2-3,53.6,40.8,29.7,31.9,26.2,23.1,78,58,34,30.20,30.09,12,2,12,0.00
2013-2-4,51.8,43.4,38.0,27.3,23.8,19.7,53,46,34,30.10,29.91,12,2,12,0.01
2013-2-5,46.4,39.2,32.4,30.7,22.9,17.7,71,53,41,29.99,29.86,20,5,20,0.00
2013-2-6,46.4,37.2,31.5,25.8,23.2,19.9,72,58,40,30.04,29.85,16,4,16,0.00
2013-2-7,38.5,32.8,27.7,25.2,22.1,17.6,77,65,51,29.98,29.83,16,2,19,0.00
2013-2-8,37.6,30.2,24.8,22.8,19.1,15.5,79,64,41,30.07,29.97,10,1,10,0.00
2013-2-9,42.1,30.0,20.2,27.3,19.9,10.2,77,66,55,30.12,30.04,10,1,10,0.00
2013-2-10,42.1,32.9,25.6,26.1,21.4,17.3,82,64,42,30.18,30.12,8,1,8,0.00
2013-2-11,48.1,34.8,25.6,30.0,23.4,17.5,79,64,42,30.23,30.11,8,2,8,0.00
2013-2-12,47.9,36.9,30.6,32.7,26.9,23.9,82,68,44,30.33,30.23,10,2,10,0.00
2013-2-13,45.5,37.7,32.8,34.4,28.8,26.0,80,71,58,30.33,30.27,9,1,9,0.00
2013-2-14,50.2,38.6,29.9,35.4,30.5,25.7,86,74,54,30.41,30.33,8,1,8,0.00
2013-2-15,54.7,40.5,29.9,37.7,31.4,25.4,85,71,48,30.39,30.19,9,1,9,0.00
2013-2-16,50.9,38.8,28.3,32.9,25.2,19.6,73,59,34,30.20,30.08,15,4,15,0.00
2013-2-17,43.2,31.7,23.9,23.6,19.2,13.7,77,62,32,30.10,29.97,8,1,8,0.00
2013-2-18,40.5,32.3,27.2,23.9,20.2,17.1,72,61,41,29.97,29.68,8,1,8,0.00
2013-2-19,38.7,30.4,25.4,23.1,19.8,17.1,74,65,48,29.86,29.62,9,1,9,0.00
2013-2-20,40.1,30.6,22.0,23.0,19.1,13.7,75,63,45,29.96,29.86,8,1,8,0.00
2013-2-21,38.7,31.1,23.6,24.7,21.6,17.7,81,68,50,30.06,29.94,13,2,13,0.00
2013-2-22,41.6,33.4,26.1,30.9,26.1,21.3,87,75,63,30.05,29.82,20,6,20,0.03
2013-2-23,36.7,28.8,22.9,26.3,19.7,15.8,83,69,44,30.23,29.92,11,2,11,0.02
2013-2-24,43.6,31.6,21.6,29.6,22.1,15.8,79,68,51,30.25,30.01,13,3,13,0.00
2013-2-25,40.7,33.5,25.7,28.3,21.9,13.2,81,63,39,30.20,29.95,20,5,20,0.00
2013-2-26,45.9,33.4,22.7,21.1,17.7,14.9,77,55,32,30.23,30.13,14,3,14,0.01
2013-2-27,44.5,37.3,30.2,31.4,22.7,14.9,67,55,48,30.22,30.15,14,4,14,0.00
2013-2-28,50.9,42.1,36.5,39.4,34.5,28.6,82,75,62,30.37,30.16,18,6,18,0.00
2013-3-1,59.4,46.5,38.2,39.3,33.9,28.4,80,63,41,30.39,30.25,12,3,12,0.00
2013-3-2,54.5,44.2,36.9,36.6,31.1,27.6,75,61,40,30.26,30.05,15,3,15,0.00
2013-3-3,41.4,34.7,27.0,30.0,18.8,8.2,79,55,27,30.13,30.03,10,1,11,0.00
2013-3-4,48.6,33.4,20.9,22.7,17.0,11.4,69,52,33,30.11,29.90,9,1,9,0.00
2013-3-5,43.0,34.1,28.6,32.2,23.7,15.9,83,66,55,29.90,29.64,10,1,10,0.02
2013-3-6,39.8,33.1,28.8,31.9,26.3,21.5,87,76,60,29.89,29.51,19,3,19,0.06
2013-3-7,44.8,33.4,25.7,29.5,23.8,18.8,84,68,46,29.96,29.88,10,2,10,0.00
2013-3-8,42.7,33.6,27.4,30.6,25.5,20.9,86,73,53,30.09,29.91,7,1,7,0.00
2013-3-9,50.4,36.8,24.8,26.8,20.0,16.0,72,53,28,30.37,30.09,9,1,9,0.00
2013-3-10,58.0,41.8,29.3,34.7,25.8,18.6,70,55,24,30.36,30.27,8,2,8,0.00
2013-3-11,54.9,45.1,38.7,39.9,35.4,30.8,81,69,54,30.30,30.19,8,1,8,0.00
2013-3-12,60.3,46.7,34.7,39.8,30.7,19.9,85,59,22,30.20,30.10,13,3,13,0.00
2013-3-13,64.1,51.4,41.9,37.1,30.6,22.2,60,45,36,30.18,30.12,10,2,10,0.00
2013-3-14,65.3,49.8,39.2,37.2,28.1,19.1,63,46,21,30.16,30.05,16,4,16,0.00
2013-3-15,57.4,46.9,39.1,37.9,32.1,27.7,75,57,39,30.17,30.11,11,2,11,0.00
2013-3-16,49.9,40.4,32.0,31.2,27.8,20.5,80,61,41,30.11,29.91,21,5,21,0.00
2013-3-17,41.6,32.6,25.6,24.0,19.5,16.4,76,59,40,30.11,29.94,10,2,10,0.00
2013-3-20,45.4,37.9,29.9,39.4,27.5,18.7,84,66,52,30.00,29.68,19,6,19,0.03
2013-3-21,41.6,31.6,24.8,24.4,19.0,14.3,72,60,44,30.10,30.00,14,4,14,0.00
2013-3-22,35.5,28.9,23.6,19.2,15.7,12.3,79,59,38,30.19,30.08,6,2,6,0.00
2013-3-23,42.1,34.0,21.8,20.5,17.3,14.0,73,52,37,30.19,30.11,8,1,8,0.00
2013-3-24,46.3,35.0,25.9,25.5,20.6,14.9,68,56,42,30.14,30.04,6,1,6,0.00
2013-3-25,48.8,39.4,29.9,29.7,25.7,20.3,70,58,45,30.04,29.88,6,1,6,0.00
2013-3-26,46.3,39.9,34.6,36.4,32.8,27.4,83,76,65,29.95,29.91,7,1,7,0.02
2013-3-27,56.5,42.2,31.3,41.1,35.0,27.1,87,76,50,29.98,29.89,13,2,19,0.07
2013-3-28,56.2,45.3,39.4,43.0,38.4,35.3,87,77,57,30.09,29.97,13,1,13,0.07
2013-3-29,61.4,47.8,37.1,43.6,38.9,33.3,89,73,45,30.18,30.09,11,2,11,0.00
2013-3-30,66.4,51.0,35.8,45.2,38.7,30.8,84,65,39,30.19,30.06,8,2,8,0.00
2013-3-31,63.4,51.5,39.8,41.1,37.3,32.9,78,60,39,30.07,29.94,12,1,12,0.00
2013-4-1,60.3,49.9,41.9,42.0,38.4,34.8,78,65,47,30.10,29.96,11,2,11,0.00
2013-4-2,63.0,48.1,37.6,42.9,36.7,32.2,83,66,44,30.14,30.08,10,2,10,0.00
2013-4-3,66.2,50.3,35.5,39.3,33.5,29.3,82,56,28,30.12,29.97,14,2,14,0.00
2013-4-4,60.7,50.7,42.8,41.1,36.1,32.5,74,57,44,29.97,29.77,27,5,27,0.00
2013-4-5,54.0,44.1,39.4,38.4,35.0,32.7,82,71,49,29.96,29.89,22,6,22,0.04
2013-4-6,52.0,43.2,37.8,37.8,34.0,30.3,84,71,47,29.96,29.78,23,6,23,0.02
2013-4-7,46.3,39.2,32.2,35.2,29.5,22.4,85,69,44,29.83,29.64,27,6,27,0.02
2013-4-8,45.7,35.9,27.5,27.6,23.4,20.3,76,61,45,30.16,29.83,11,2,11,0.00
2013-4-9,55.8,41.4,27.2,34.2,26.7,19.4,76,58,27,30.25,30.15,8,1,8,0.00
2013-4-10,58.7,47.1,36.7,44.5,34.7,27.2,76,63,42,30.22,30.07,26,4,26,0.00
2013-4-11,52.2,40.2,29.9,29.2,25.4,22.1,77,58,33,30.17,30.07,13,2,13,0.00
2013-4-12,59.6,43.3,28.8,33.3,26.1,12.9,76,55,18,30.08,29.74,24,6,24,0.00
2013-4-13,45.4,39.2,30.1,32.2,20.9,14.9,66,48,32,29.97,29.73,22,4,22,0.00
2013-4-14,42.1,32.7,25.7,26.4,20.7,15.8,77,61,44,29.98,29.81,9,1,9,0.00
2013-4-15,37.6,31.1,28.1,30.0,25.8,22.5,86,80,67,30.03,29.81,10,1,10,0.25
2013-4-16,39.6,32.7,28.4,30.3,26.4,23.3,86,78,54,30.25,30.02,9,1,9,0.13
2013-4-17,47.5,36.1,24.7,26.0,21.8,15.5,81,58,33,30.33,30.24,10,2,10,0.00
2013-4-18,57.4,44.1,32.6,38.4,31.4,22.5,73,62,47,30.31,30.24,12,2,12,0.00
2013-4-19,56.5,47.0,38.5,39.7,35.3,29.7,77,65,44,30.24,30.10,21,5,21,0.00
2013-4-20,56.5,44.6,34.2,35.8,30.8,26.5,80,61,36,30.20,30.14,13,2,13,0.00
2013-4-21,60.1,46.2,35.1,39.6,33.5,28.3,78,62,42,30.17,30.11,12,2,12,0.00
2013-4-22,52.2,42.2,34.7,32.7,25.5,16.3,80,54,30,30.33,30.17,12,2,12,0.00
2013-4-23,60.1,43.6,27.2,22.0,14.0,3.3,53,34,11,30.30,30.08,10,2,10,0.00
2013-4-24,67.0,48.7,33.1,23.0,18.0,13.2,46,31,16,30.23,30.04,8,2,8,0.00
2013-4-25,69.5,53.4,36.7,35.8,27.4,17.6,52,37,26,30.15,30.01,13,2,13,0.00
2013-4-26,75.4,57.7,42.5,38.4,30.6,19.8,64,39,15,30.25,30.14,12,2,12,0.00
2013-4-27,68.6,56.4,42.5,38.3,30.4,24.7,63,39,22,30.26,30.14,18,5,18,0.00
2013-4-28,65.2,52.1,41.9,35.1,29.7,25.1,59,43,27,30.18,30.06,19,3,19,0.00
2013-4-29,57.2,47.7,34.7,39.4,31.0,21.4,74,54,32,30.07,29.96,17,5,17,0.00
2013-4-30,56.2,37.3,25.4,22.1,19.0,15.0,71,50,26,30.29,30.02,12,2,12,0.00
2013-5-1,69.5,44.0,27.4,25.1,19.8,15.0,65,42,17,30.45,30.29,10,2,10,0.00
2013-5-2,82.4,55.0,35.3,24.7,19.4,10.3,56,29,7,30.45,30.25,10,2,10,0.00
2013-5-3,75.6,56.8,42.8,32.9,27.6,21.6,51,33,19,30.27,30.17,12,2,12,0.00
2013-5-4,67.7,55.9,48.2,35.1,30.0,26.6,49,38,28,30.19,29.97,18,3,18,0.00
2013-5-5,73.6,57.2,45.7,37.1,31.9,27.8,53,39,26,29.97,29.83,14,3,14,0.00
2013-5-6,75.4,62.5,49.7,40.8,34.3,29.8,53,36,22,29.92,29.83,11,2,11,0.00
2013-5-7,78.5,61.3,48.6,44.7,41.2,31.4,79,51,23,30.01,29.90,14,3,14,0.00
2013-5-8,80.8,60.8,47.7,46.8,41.5,35.1,74,52,21,30.13,30.01,14,2,14,0.00
2013-5-9,79.0,61.4,49.0,49.2,44.3,38.4,77,56,25,30.18,30.10,17,2,17,0.04
2013-5-10,83.9,64.9,49.7,51.0,44.6,40.1,78,52,25,30.24,30.16,12,2,12,0.00
2013-5-11,87.5,69.0,54.7,52.2,47.5,38.5,72,49,22,30.24,30.10,12,3,12,0.00
2013-5-12,91.1,68.2,57.2,51.1,47.8,43.8,73,51,23,30.15,30.04,18,4,18,0.00
2013-5-13,70.2,58.1,46.1,47.1,40.0,32.3,69,52,32,30.14,30.04,27,5,27,0.00
2013-5-14,68.9,51.7,40.1,39.0,35.1,31.3,75,55,30,30.14,30.04,11,2,11,0.00
2013-5-15,60.1,49.3,40.0,45.7,37.4,31.3,75,64,41,30.08,29.99,16,2,16,0.05
2013-5-16,56.0,47.8,41.8,44.2,39.4,34.6,82,73,54,30.01,29.90,11,2,11,0.02
2013-5-17,59.2,47.5,41.6,40.7,37.2,33.3,82,68,47,30.04,29.93,7,1,7,0.00
2013-5-18,55.8,45.3,36.0,43.1,35.4,29.2,78,69,50,30.20,30.04,11,2,11,0.12
2013-5-19,72.4,49.1,37.1,41.0,35.0,31.1,80,61,25,30.28,30.20,11,2,11,0.00
2013-5-20,89.3,56.1,37.1,41.9,35.3,28.3,77,51,12,30.25,29.92,12,2,12,0.00
2013-5-21,56.5,47.2,33.3,38.8,30.4,19.9,72,53,34,29.92,29.76,26,6,26,0.00
2013-5-22,48.2,37.7,31.0,33.2,25.8,19.4,74,62,53,29.92,29.87,16,6,16,0.00
2013-5-23,56.7,42.6,31.3,32.0,27.7,23.6,76,57,33,29.98,29.91,12,2,12,0.00
2013-5-24,59.2,45.9,37.6,32.9,30.5,26.5,77,56,35,30.02,29.93,12,3,12,0.00
2013-5-25,61.6,47.4,33.5,41.8,33.7,27.3,80,61,34,30.01,29.94,9,2,9,0.01
2013-5-26,67.0,50.3,42.8,43.1,38.7,33.7,87,67,34,30.03,29.94,16,3,16,0.08
2013-5-27,57.6,48.1,42.7,47.1,39.3,33.1,83,72,62,30.00,29.81,18,4,18,0.01
2013-5-28,76.5,53.2,42.1,41.9,36.5,32.3,79,56,26,29.91,29.78,17,5,17,0.01
2013-5-29,61.6,49.7,43.2,41.7,37.3,32.1,83,63,44,29.99,29.71,25,7,25,0.00
2013-5-30,66.2,47.6,34.9,37.4,32.7,28.3,78,58,34,30.17,29.98,12,2,12,0.00
2013-5-31,80.1,53.0,33.7,38.2,32.9,26.5,79,51,19,30.23,30.17,9,2,9,0.00
2013-6-1,82.8,58.7,42.3,43.4,38.1,32.1,71,49,23,30.22,30.03,11,2,11,0.00
2013-6-2,78.5,57.1,43.4,43.1,37.4,26.5,78,52,18,30.06,29.97,10,2,10,0.00
2013-6-3,87.8,58.5,40.5,41.8,34.0,25.7,73,44,17,30.07,30.01,9,2,9,0.00
2013-6-4,90.4,62.8,45.0,41.0,32.8,24.9,56,35,15,30.11,30.06,10,2,10,0.00
2013-6-5,94.9,68.3,51.1,46.7,40.3,33.6,58,39,15,30.11,30.03,12,2,12,0.00
2013-6-6,94.3,69.0,52.7,51.7,46.2,40.5,67,47,17,30.09,30.00,10,2,10,0.00
2013-6-7,88.7,67.9,54.7,50.6,46.2,41.2,76,49,21,30.12,30.06,12,2,12,0.00
2013-6-8,93.6,68.4,51.7,47.7,40.8,20.8,73,42,15,30.13,30.06,11,2,11,0.00
2013-6-9,89.1,66.4,54.0,47.5,39.2,28.7,65,40,15,30.08,29.93,10,2,10,0.00
2013-6-10,86.6,60.1,43.6,38.2,32.6,23.8,63,39,16,29.96,29.83,14,2,14,0.00
2013-6-11,69.3,52.7,41.4,38.3,33.5,29.2,69,49,30,30.08,29.91,11,2,11,0.00
2013-6-12,69.7,48.3,34.9,36.7,31.6,25.7,71,54,28,30.10,30.05,10,2,10,0.00
2013-6-13,58.7,46.6,38.5,41.6,33.8,28.4,72,61,43,30.21,30.09,11,1,11,0.01
2013-6-14,83.5,54.5,36.5,39.1,32.9,27.5,79,50,16,30.21,30.02,10,2,10,0.00
2013-6-15,81.0,61.1,42.8,45.4,37.4,29.3,66,44,18,30.03,29.92,12,2,12,0.00
2013-6-16,77.8,62.2,50.6,54.8,43.6,37.6,68,52,27,30.11,30.01,11,2,11,0.01
2013-6-17,77.9,61.2,47.2,47.8,42.8,39.0,76,53,29,30.12,29.94,15,3,15,0.00
2013-6-18,59.4,52.2,47.3,46.1,40.5,35.3,78,65,45,29.99,29.89,10,2,10,0.01
2013-6-19,55.8,48.0,40.3,45.0,37.6,32.6,80,68,52,30.05,29.90,9,1,9,0.01
2013-6-20,66.6,48.1,36.2,38.7,34.4,29.8,80,61,34,30.10,30.01,16,1,16,0.00
2013-6-21,60.5,49.9,41.9,42.3,37.7,33.6,79,63,48,30.13,30.09,9,1,9,0.00
2013-6-22,77.8,58.1,40.7,45.7,40.4,33.9,78,55,29,30.12,29.94,9,2,9,0.00
2013-6-23,60.1,56.3,53.6,51.9,47.9,40.9,87,74,54,29.95,29.75,8,1,8,0.16
2013-6-24,56.5,52.0,48.2,49.7,46.6,43.3,87,82,72,29.80,29.71,10,2,10,0.12
2013-6-25,63.2,55.5,50.0,50.7,46.4,44.0,84,72,57,29.94,29.78,17,4,17,0.02
2013-6-26,65.2,57.4,50.9,56.4,49.9,44.6,83,76,72,30.12,29.93,11,2,11,0.01
2013-6-27,82.3,65.5,49.1,56.1,51.5,44.7,88,63,38,30.23,30.09,13,2,13,0.00
2013-6-28,93.2,71.8,55.3,59.0,54.4,48.5,81,58,28,30.24,30.10,10,2,10,0.00
2013-6-29,90.7,73.6,63.0,60.8,54.7,51.0,71,53,33,30.16,30.07,11,2,11,0.00
2013-6-30,101.2,76.4,59.0,59.9,54.1,48.5,69,49,24,30.12,29.98,8,2,8,0.00
2013-7-1,98.6,80.1,68.6,59.2,55.7,52.3,60,45,25,30.13,30.02,11,2,11,0.00
2013-7-2,101.9,80.5,66.1,61.6,55.4,43.5,74,45,19,30.14,30.07,11,2,13,0.00
2013-7-3,94.3,75.7,65.0,58.9,53.6,41.9,72,49,26,30.14,30.05,13,2,13,0.00
2013-7-4,86.8,68.2,56.9,45.4,40.4,29.2,54,39,19,30.09,29.98,12,2,12,0.00
2013-7-5,84.6,62.8,48.6,42.9,37.3,29.0,75,43,19,30.00,29.92,10,2,10,0.00
2013-7-6,90.0,64.6,45.5,44.4,35.5,28.4,67,38,17,29.97,29.87,10,1,10,0.00
2013-7-7,89.3,68.6,52.4,48.1,42.9,36.9,59,42,19,29.99,29.88,10,2,10,0.00
2013-7-8,92.0,68.7,52.2,45.8,40.1,32.3,69,40,13,30.12,29.99,8,2,8,0.00
2013-7-9,99.0,73.5,55.6,51.0,44.1,30.8,56,38,13,30.14,30.04,10,2,10,0.00
2013-7-10,87.3,73.3,60.1,52.2,45.9,37.2,64,40,21,30.11,29.94,13,2,13,0.00
2013-7-11,85.0,66.8,54.0,46.4,42.1,38.3,63,43,24,30.01,29.94,13,2,13,0.00
2013-7-12,84.8,61.9,47.7,40.2,36.0,25.0,70,41,17,30.08,29.95,15,2,15,0.00
2013-7-13,85.9,61.1,44.1,38.4,33.3,24.7,66,39,16,30.14,30.07,8,1,8,0.00
2013-7-14,95.4,69.4,52.0,44.3,33.6,23.1,43,28,15,30.14,30.01,10,2,11,0.00
2013-7-15,94.0,69.9,54.7,43.4,38.7,33.8,55,35,15,30.06,29.92,13,1,13,0.00
2013-7-16,88.2,69.3,60.8,46.0,36.9,29.6,39,31,19,30.04,29.93,8,2,8,0.00
2013-7-17,90.7,70.8,57.2,44.6,39.3,33.3,60,35,15,30.19,30.04,12,2,12,0.00
2013-7-18,99.0,72.1,54.4,48.1,39.5,30.3,54,34,10,30.20,30.08,10,2,10,0.00
2013-7-19,100.4,74.5,58.0,47.3,33.8,24.7,45,26,8,30.15,30.04,10,1,10,0.00
2013-7-20,101.5,75.2,59.4,46.9,37.7,24.1,50,29,6,30.09,29.98,11,1,11,0.00
2013-7-21,101.9,73.6,56.5,45.1,36.6,20.5,63,31,5,30.02,29.94,11,2,11,0.00
2013-7-22,100.1,73.6,55.4,39.5,31.9,-12.7,52,25,1,30.08,30.00,13,1,13,0.00
2013-7-23,94.3,75.6,60.7,40.4,27.7,-24.7,42,19,1,30.10,30.01,10,2,10,0.00
2013-7-24,117.7,78.9,66.6,29.6,16.6,-22.3,22,1,1,30.11,30.05,9,1,9,0.00
2013-7-25,139.9,96.8,72.4,62.3,32.5,-16.1,24,8,1,30.15,30.07,13,1,13,0.00
2013-7-26,97.6,77.7,64.1,44.1,36.5,29.0,39,24,11,30.18,30.09,12,1,12,0.00
2013-7-27,90.2,70.4,57.6,41.3,35.1,23.3,50,30,12,30.17,30.01,11,1,11,0.00
2013-7-28,86.0,65.9,51.3,41.3,35.7,24.9,56,36,17,30.03,29.95,10,1,10,0.00
2013-7-29,90.7,66.3,50.4,45.4,40.1,32.4,67,42,16,30.06,29.95,10,1,10,0.00
2013-7-30,82.6,67.8,51.8,44.6,37.8,23.3,64,38,13,30.16,30.06,10,1,10,0.00
2013-7-31,80.1,66.8,59.8,49.0,43.0,35.6,61,44,21,30.15,30.03,8,0,8,0.05
2013-8-1,69.5,58.8,50.8,55.5,47.0,40.3,88,66,43,30.09,30.01,8,0,8,0.28
2013-8-2,74.0,58.6,45.7,47.8,42.0,38.4,79,57,29,30.11,30.06,9,1,9,0.00
2013-8-3,87.7,64.6,47.9,48.0,41.3,32.2,74,47,18,30.12,30.04,9,1,9,0.00
2013-8-4,90.0,70.3,55.1,49.9,44.4,40.2,62,42,19,30.10,29.99,11,1,11,0.00
2013-8-5,91.3,71.5,57.8,51.1,44.6,34.8,60,40,17,30.08,30.00,9,1,9,0.00
2013-8-6,93.1,72.0,55.1,50.8,43.1,36.3,66,39,15,30.08,29.99,12,1,12,0.00
2013-8-7,82.8,69.6,59.9,45.4,41.8,35.7,50,37,23,30.09,30.02,5,0,5,0.00
2013-8-8,80.6,68.6,54.9,47.5,42.9,38.9,61,41,25,30.07,29.98,6,0,6,0.00
2013-8-9,80.6,67.0,56.7,52.9,47.4,44.4,69,51,30,30.04,29.93,7,0,7,0.01
2013-8-10,70.7,60.2,50.6,54.5,47.2,42.9,76,63,45,30.09,30.00,2,0,2,0.09
2013-8-11,78.3,62.5,49.9,49.4,46.1,42.8,78,58,30,30.09,30.01,8,0,8,0.00
2013-8-12,81.4,65.3,51.3,51.8,47.5,41.5,78,56,28,30.10,30.01,0,0,0,0.00
2013-8-13,86.8,67.5,51.7,49.2,46.0,41.2,75,49,25,30.12,30.01,0,0,0,0.00
2013-8-14,86.4,70.7,56.5,50.0,45.5,38.4,63,43,19,30.06,29.97,0,0,0,0.00
2013-8-15,87.3,69.7,56.2,51.7,46.8,39.1,67,47,19,30.07,29.97,0,0,0,0.00
2013-8-16,82.4,69.0,57.8,55.8,52.4,47.5,73,57,34,30.11,30.04,0,0,0,0.00
2013-8-17,80.5,67.9,57.2,56.3,51.4,47.6,78,57,35,30.12,30.03,0,0,0,0.00
2013-8-18,84.6,68.3,52.9,51.4,47.1,36.6,76,51,24,30.16,30.08,0,0,0,0.00
2013-8-19,85.0,69.4,54.9,51.3,46.7,42.3,70,47,24,30.14,30.05,0,0,0,0.00
2013-8-20,80.5,66.8,50.2,48.8,37.1,22.1,72,40,12,30.12,30.04,0,0,0,0.00
2013-8-21,80.1,68.4,56.3,42.4,34.9,26.2,46,30,18,30.09,30.02,0,0,0,0.00
2013-8-22,77.2,64.2,57.8,52.5,43.4,33.3,74,48,32,30.06,29.98,0,0,0,0.02
2013-8-23,77.0,64.0,52.9,52.4,47.9,44.2,76,58,35,29.99,29.90,0,0,0,0.00
2013-8-24,74.5,62.8,52.6,50.9,47.4,44.3,75,59,37,29.96,29.86,0,0,0,0.00
2013-8-25,69.1,58.3,50.8,56.2,49.1,45.7,83,72,53,30.01,29.88,0,0,0,0.14
2013-8-26,72.7,59.5,49.3,51.9,46.8,43.7,84,65,38,30.02,29.97,0,0,0,0.00
2013-8-27,82.1,63.7,48.2,51.1,45.8,40.0,75,56,23,30.02,29.87,0,0,0,0.00
2013-8-28,83.0,67.2,52.9,51.8,47.1,40.8,78,52,25,29.99,29.91,0,0,0,0.00
2013-8-29,79.6,67.2,57.6,50.8,48.3,44.7,71,53,32,30.12,29.96,0,0,0,0.00
2013-8-30,80.3,66.2,53.3,53.7,49.1,42.7,78,57,27,30.17,30.07,0,0,0,0.00
2013-8-31,84.1,67.6,51.3,54.1,48.9,43.1,75,54,30,30.12,29.95,0,0,0,0.00
2013-9-1,88.4,71.5,56.2,51.1,43.3,27.5,67,41,13,29.97,29.85,0,0,0,0.00
2013-9-2,83.3,66.7,53.6,51.7,47.6,34.7,75,54,19,29.98,29.89,0,0,0,0.00
2013-9-3,80.1,64.0,51.7,50.4,46.6,34.8,80,57,21,30.05,29.96,0,0,0,0.00
2013-9-4,81.4,63.6,50.8,48.8,44.9,32.6,79,54,19,30.06,29.98,0,0,0,0.00
2013-9-5,69.1,57.3,51.1,56.2,46.9,42.5,84,69,49,30.08,29.94,0,0,0,0.18
2013-9-6,67.3,56.8,48.1,48.7,45.3,41.8,83,66,47,30.15,30.07,0,0,0,0.00
2013-9-7,75.4,59.5,43.7,51.2,45.6,38.9,85,63,37,30.15,30.02,0,0,0,0.00
2013-9-8,73.1,61.5,48.4,50.9,46.2,40.6,78,59,37,30.12,30.08,0,0,0,0.00
2013-9-9,78.8,60.9,50.4,50.2,43.0,35.0,72,54,25,30.10,30.02,0,0,0,0.00
2013-9-13,78.3,72.0,59.8,49.4,45.2,38.6,52,39,26,30.02,29.91,0,0,0,0.00
2013-9-14,83.7,69.5,56.9,51.0,46.9,43.6,64,47,26,29.94,29.84,0,0,0,0.00
2013-9-15,86.0,70.0,58.0,50.0,43.4,31.5,61,41,15,29.91,29.75,0,0,0,0.00
2013-9-16,68.4,57.8,48.8,46.4,42.7,38.9,74,58,43,29.97,29.91,0,0,0,0.00
2013-9-17,55.4,50.2,44.3,45.2,40.7,36.5,79,70,60,29.99,29.84,0,0,0,0.01
2013-9-18,63.4,51.5,41.6,40.2,36.6,33.1,77,59,36,30.08,29.99,0,0,0,0.00
2013-9-19,74.0,56.1,38.9,40.8,34.6,29.8,72,48,25,30.07,29.89,0,0,0,0.15
2013-9-20,74.5,56.0,42.3,43.4,35.8,28.9,74,49,23,29.89,29.68,0,0,0,0.06
2013-9-21,61.0,51.9,44.1,42.5,39.2,35.8,75,63,46,29.81,29.73,0,0,0,0.00
2013-9-22,57.8,49.1,43.2,44.9,39.4,35.0,79,70,53,29.88,29.78,0,0,0,0.00
2013-9-23,64.3,53.5,48.6,43.3,39.5,35.5,66,60,43,29.99,29.88,0,0,0,0.00
2013-9-24,52.2,47.2,41.0,42.4,37.9,33.8,81,70,55,29.98,29.82,0,0,0,0.01
2013-9-25,49.9,42.5,36.9,36.6,33.3,28.1,83,70,54,29.96,29.80,0,0,0,0.00
2013-9-26,51.7,41.8,33.1,36.0,31.4,26.3,80,67,51,30.12,29.96,0,0,0,0.00
2013-9-27,60.8,45.2,33.5,41.4,34.6,27.8,82,68,34,30.12,30.01,0,0,0,0.00
2013-9-28,61.0,51.8,45.7,47.4,43.5,41.0,87,74,54,30.01,29.67,0,0,0,0.30
2013-9-29,48.2,44.3,40.7,45.4,39.6,36.2,90,84,73,29.79,29.59,0,0,0,0.73
2013-9-30,51.5,43.9,36.7,45.4,35.1,31.4,90,72,59,29.99,29.62,0,0,0,0.03
2013-10-1,50.4,42.1,33.8,37.4,32.0,26.0,78,68,51,30.14,29.96,0,0,0,0.00
2013-10-2,46.4,37.3,28.1,32.7,28.6,23.0,83,71,50,30.13,29.99,0,0,0,0.00
2013-10-3,49.0,39.2,32.0,33.8,29.9,26.3,81,70,52,30.34,30.07,0,0,0,0.00
2013-10-4,55.8,42.4,31.5,34.7,29.1,25.3,79,61,37,30.41,30.33,0,0,0,0.00
2013-10-5,68.8,49.5,33.7,35.8,30.0,23.8,68,50,25,30.35,30.21,0,0,0,0.00
2013-10-6,71.3,54.0,39.2,37.4,30.6,25.4,59,43,24,30.22,30.02,0,0,0,0.00
2013-10-7,53.5,47.6,38.2,35.9,29.7,23.9,67,50,43,30.07,29.98,0,0,0,0.00
2013-10-8,47.0,40.0,34.2,35.7,31.3,26.0,80,71,60,30.08,29.91,0,0,0,0.02
2013-10-9,41.6,37.2,34.2,33.4,31.3,29.1,87,79,70,30.01,29.93,0,0,0,0.02
2013-10-10,54.4,41.9,33.5,35.1,31.0,27.9,82,67,46,30.03,29.89,0,0,0,0.00
2013-10-11,50.2,40.9,31.9,36.4,31.6,26.9,83,70,52,30.08,30.01,0,0,0,0.00
2013-10-12,45.4,39.2,34.2,35.1,31.7,27.2,84,75,65,30.09,29.98,0,0,0,0.00
2013-10-13,47.7,41.5,37.8,36.4,34.1,31.6,88,76,57,30.25,30.08,0,0,0,0.00
2013-10-14,51.7,40.6,30.4,34.7,30.1,25.3,83,67,46,30.31,30.24,0,0,0,0.00
2013-10-15,57.6,42.9,30.8,33.9,28.2,22.3,74,57,40,30.31,30.14,0,0,0,0.00
2013-10-16,60.1,45.0,33.5,32.1,26.4,21.8,63,50,31,30.17,30.09,0,0,0,0.00
2013-10-17,57.4,44.2,33.1,36.5,30.4,25.4,77,60,38,30.22,30.16,0,0,0,0.00
2013-10-18,59.8,45.4,33.3,38.6,31.9,24.8,74,60,42,30.24,30.16,0,0,0,0.00
2013-10-19,70.2,50.7,36.2,37.9,31.5,26.7,73,51,21,30.17,30.10,0,0,0,0.00
2013-10-20,66.1,50.5,36.5,37.4,30.0,23.9,62,46,31,30.18,30.13,0,0,0,0.00
2013-10-21,66.1,51.0,37.3,39.4,33.0,26.3,68,52,33,30.18,30.12,0,0,0,0.00
2013-10-22,65.7,50.2,36.7,40.1,34.2,27.7,71,56,36,30.17,30.07,0,0,0,0.00
2013-10-23,64.4,49.2,37.1,41.6,34.6,28.8,74,58,37,30.11,30.05,0,0,0,0.00
2013-10-24,65.2,48.7,36.5,42.4,35.8,29.7,77,63,40,30.13,30.05,0,0,0,0.00
2013-10-25,67.5,50.4,37.8,41.5,33.6,28.6,72,55,29,30.24,30.12,0,0,0,0.00
2013-10-26,65.3,48.1,35.5,38.6,32.1,26.3,71,55,32,30.25,30.09,0,0,0,0.00
2013-10-27,49.3,38.9,33.5,39.2,32.5,26.6,89,78,49,30.11,29.76,0,0,0,0.32
2013-10-28,37.4,32.0,29.0,34.7,26.5,21.0,90,80,69,29.89,29.75,0,0,0,0.05
2013-10-29,43.0,33.1,26.8,26.0,21.1,17.1,72,61,48,30.00,29.89,0,0,0,0.01
2013-10-30,53.1,40.0,29.3,35.5,28.6,21.2,80,65,40,30.13,29.98,0,0,0,0.00
2013-10-31,58.3,46.8,39.1,45.5,37.8,30.4,78,71,62,30.23,30.11,0,0,0,0.00
2013-11-1,54.9,43.9,34.7,42.9,37.0,30.3,88,77,63,30.23,29.96,0,0,0,0.00
2013-11-2,46.4,40.4,30.1,39.3,31.3,23.1,85,70,49,30.01,29.80,0,0,0,0.02
2013-11-3,41.2,33.8,28.8,27.6,25.1,22.1,82,71,51,30.05,29.96,0,0,0,0.00
2013-11-4,45.4,37.5,31.7,31.2,27.6,25.3,78,68,47,30.11,30.00,0,0,0,0.00
2013-11-5,48.6,41.8,36.4,40.1,35.2,28.5,84,78,69,30.19,30.05,0,0,0,0.00
2013-11-6,54.4,47.4,41.8,45.4,41.2,37.5,86,79,70,30.24,30.11,0,0,0,0.00
2013-11-7,49.9,42.7,34.2,42.2,35.2,25.8,85,75,60,30.11,29.90,0,0,0,0.08
2013-11-8,44.3,37.2,32.4,33.0,28.9,25.7,79,72,62,30.11,30.05,0,0,0,0.00
2013-11-9,51.5,39.0,29.5,35.7,29.8,24.3,82,70,53,30.06,30.01,0,0,0,0.00
2013-11-10,59.0,45.7,37.8,40.4,35.4,31.4,79,68,44,30.13,30.04,0,0,0,0.00
2013-11-11,39.6,36.6,34.6,34.7,32.2,29.3,89,84,80,30.22,30.12,0,0,0,0.00
2013-11-12,55.1,44.1,35.3,43.1,37.1,30.4,87,77,60,30.33,30.14,0,0,0,0.03
2013-11-13,52.9,41.4,32.4,39.1,32.9,25.0,99,73,46,30.38,30.20,0,0,0,0.00
2013-11-14,43.7,35.2,29.7,31.4,24.7,22.1,93,66,47,30.20,29.99,0,0,0,0.00
2013-11-15,42.1,33.5,27.7,37.7,24.7,22.1,99,71,57,29.99,29.55,0,0,0,0.00
2013-11-16,48.1,37.9,34.0,34.7,26.7,14.4,85,64,35,29.80,29.49,0,0,0,0.00
2013-11-17,48.2,38.1,33.3,33.8,28.0,23.8,92,67,44,29.98,29.80,0,0,0,0.00
2013-11-18,54.2,42.0,37.6,40.5,31.0,22.0,99,66,34,29.96,29.80,0,0,0,0.00
2013-11-19,52.2,41.6,37.8,49.4,39.3,35.4,99,91,78,29.83,29.76,0,0,0,0.04
2013-11-20,60.5,35.9,28.4,41.5,10.9,-47.2,99,57,1,30.23,29.82,0,0,0,0.00
2013-11-21,136.3,81.8,24.8,56.9,-0.1,-36.3,1,1,1,30.47,30.23,0,0,0,0.00
2013-11-22,119.3,50.0,-39.2,48.3,-1.4,-54.9,48,10,1,30.49,30.40,0,0,0,0.05
2013-11-23,134.6,69.5,31.0,83.0,-4.5,-45.0,37,2,1,30.41,30.19,0,0,0,0.00
2013-11-24,134.3,115.6,74.5,90.1,36.5,-18.5,37,6,1,30.19,30.16,0,0,0,0.00
2013-12-4,11.3,10.8,10.1,-2.8,-3.3,-3.7,54,52,50,30.18,30.16,0,0,0,0.00
2013-12-6,40.0,9.5,6.8,30.6,2.8,1.1,78,74,50,29.99,29.88,3,0,3,0.00
2013-12-7,7.2,2.9,-4.1,1.5,-4.4,-11.5,79,71,62,30.21,29.91,6,1,6,0.05
2013-12-8,19.1,5.1,-6.1,8.5,-2.7,-13.0,73,70,61,30.42,30.20,6,1,6,0.03
2013-12-9,30.8,18.3,5.2,19.4,9.1,-1.8,75,67,57,30.42,30.32,10,2,10,0.09
2013-12-10,38.0,28.2,23.4,24.6,18.5,14.2,75,67,55,30.37,30.30,6,1,6,0.05
2013-12-11,40.9,28.5,19.1,28.3,20.6,13.4,82,72,59,30.32,30.23,6,1,6,0.02
2013-12-12,41.8,33.2,24.1,27.6,22.5,16.0,78,65,50,30.23,30.12,13,2,13,0.00
2013-12-13,44.6,36.2,31.3,34.0,29.2,25.6,83,76,64,30.42,30.19,6,1,6,0.00
2013-12-14,45.0,38.0,30.8,30.7,28.2,26.0,83,68,54,30.43,30.38,13,2,13,0.00
2013-12-15,54.0,41.8,36.0,36.9,27.9,23.1,77,58,38,30.42,30.35,8,1,8,0.00
2013-12-16,51.1,39.1,31.0,30.2,26.4,22.9,79,61,44,30.43,30.32,6,1,6,0.00
2013-12-17,55.8,42.2,34.6,30.1,24.3,21.1,60,50,36,30.32,30.13,8,2,8,0.00
2013-12-18,40.7,36.1,30.4,30.0,25.5,21.8,79,66,51,30.13,29.96,4,0,4,0.00
2013-12-19,30.6,24.6,19.8,24.0,14.0,9.5,79,64,48,30.20,29.99,4,0,4,0.02
2013-12-20,42.8,31.9,20.0,34.8,22.8,10.0,83,69,51,30.11,29.85,10,2,10,0.04
2013-12-21,49.0,40.4,34.9,33.7,30.6,27.5,82,69,48,30.19,29.90,15,1,15,0.00
2013-12-22,51.5,42.7,38.2,37.9,33.0,29.5,77,69,54,30.34,30.17,8,2,8,0.01
2013-12-23,52.4,43.1,36.4,38.9,31.1,26.6,73,63,51,30.45,30.26,11,2,11,0.00
2013-12-24,46.8,35.3,28.3,31.0,25.8,21.8,81,69,44,30.50,30.44,7,1,7,0.00
2013-12-25,47.3,37.5,30.2,27.3,24.3,21.2,72,59,43,30.45,30.37,8,2,8,0.00
2013-12-26,55.8,42.1,32.8,30.6,24.7,20.3,61,51,36,30.37,30.27,8,2,8,0.00
2013-12-27,49.7,39.2,33.1,26.9,22.8,19.7,62,52,40,30.28,30.16,12,2,12,0.00
2013-12-28,43.7,34.1,27.4,23.9,19.0,14.7,65,55,36,30.41,30.27,5,0,5,0.00
2013-12-29,44.8,33.6,25.2,21.6,17.2,13.1,61,51,38,30.40,30.26,6,1,6,0.00
2013-12-30,44.1,38.8,33.3,23.2,20.3,16.5,56,48,33,30.27,30.18,8,1,8,0.00
2013-12-31,50.9,43.5,38.9,24.9,22.2,18.8,52,43,33,30.31,30.21,8,1,8,0.00
2014-1-1,50.6,38.6,29.2,34.7,27.2,20.9,73,64,50,30.34,30.27,6,1,6,0.00
2014-1-2,55.3,42.6,31.1,33.9,28.1,23.7,76,58,43,30.28,30.06,10,2,10,0.00